Time;durP1;ratioP1;P1;durP2;ratioP2;P2;SDS_P1;SDS_P2;PMS_P1;PMS_P2;Temp;Humidity;BMP_temperature;BMP_pressure;BME280_temperature;BME280_humidity;BME280_pressure;Samples;Min_cycle;Max_cycle;Signal;HPM_P1;HPM_P2
2023/08/31 00:00:53;;;;;;;15.80;10.80;;;;;;;14.41;100.00;99656.55;217944;1288;141521;-94
2023/08/31 00:05:53;;;;;;;17.10;11.00;;;;;;;14.41;100.00;99659.86;218527;1288;139298;-93
2023/08/31 00:10:58;;;;;;;18.90;11.60;;;;;;;14.43;100.00;99659.51;218126;1288;141500;-94
2023/08/31 00:15:59;;;;;;;19.30;11.90;;;;;;;14.45;100.00;99664.16;218399;1289;139620;-93
2023/08/31 00:20:59;;;;;;;16.30;10.00;;;;;;;14.45;100.00;99662.26;218047;1290;141412;-94
2023/08/31 00:26:00;;;;;;;16.00;10.80;;;;;;;14.45;100.00;99666.05;218345;1288;139761;-93
2023/08/31 00:31:04;;;;;;;17.00;11.20;;;;;;;14.47;100.00;99665.61;217983;1288;141533;-93
2023/08/31 00:36:05;;;;;;;17.00;11.20;;;;;;;14.48;100.00;99665.84;218377;1288;139220;-93
2023/08/31 00:41:06;;;;;;;18.40;11.30;;;;;;;14.48;100.00;99668.91;218030;1288;141091;-94
2023/08/31 00:46:07;;;;;;;21.10;12.10;;;;;;;14.48;100.00;99660.70;218526;1290;139016;-93
2023/08/31 00:51:10;;;;;;;18.00;10.90;;;;;;;14.49;100.00;99660.29;218010;1289;141119;-94
2023/08/31 00:56:11;;;;;;;17.30;10.50;;;;;;;14.48;100.00;99658.48;218406;1288;138436;-93
2023/08/31 01:01:16;;;;;;;19.00;11.40;;;;;;;14.47;100.00;99657.55;217984;1288;141799;-94
2023/08/31 01:06:52;;;;;;;16.50;12.00;;;;;;;14.47;100.00;99653.99;218680;1290;139702;-94
2023/08/31 01:12:09;;;;;;;15.60;10.70;;;;;;;14.49;100.00;99652.05;217998;1289;142053;-93
2023/08/31 01:17:13;;;;;;;17.10;11.90;;;;;;;14.48;100.00;99644.48;218697;1288;107759;-95
2023/08/31 01:22:36;;;;;;;16.20;11.80;;;;;;;14.47;100.00;99643.21;217879;1291;140969;-95
2023/08/31 01:27:38;;;;;;;16.30;11.50;;;;;;;14.47;100.00;99639.13;218457;1288;139367;-94
2023/08/31 01:32:45;;;;;;;16.50;9.40;;;;;;;14.44;100.00;99631.63;217813;1288;141006;-94
2023/08/31 01:38:00;;;;;;;17.40;10.50;;;;;;;14.43;100.00;99634.29;218401;1289;139342;-93
2023/08/31 01:43:05;;;;;;;16.10;10.90;;;;;;;14.40;100.00;99635.59;217780;1288;140651;-94
2023/08/31 01:48:06;;;;;;;15.70;10.20;;;;;;;14.35;100.00;99629.98;218355;1289;140171;-94
2023/08/31 01:53:08;;;;;;;12.60;8.70;;;;;;;14.32;100.00;99622.93;218042;1289;140360;-94
2023/08/31 01:58:09;;;;;;;14.80;10.50;;;;;;;14.28;100.00;99627.89;218389;1288;139067;-94
2023/08/31 02:03:11;;;;;;;17.30;11.70;;;;;;;14.25;100.00;99627.79;217946;1288;140861;-94
2023/08/31 02:08:11;;;;;;;15.30;10.20;;;;;;;14.21;100.00;99626.75;218587;1288;139114;-94
2023/08/31 02:13:14;;;;;;;18.30;11.40;;;;;;;14.17;100.00;99627.26;217988;1289;140466;-95
2023/08/31 02:18:15;;;;;;;16.80;11.00;;;;;;;14.14;100.00;99632.20;218575;1288;139561;-94
2023/08/31 02:23:18;;;;;;;16.50;11.00;;;;;;;14.12;100.00;99634.77;218158;1288;140942;-94
2023/08/31 02:28:37;;;;;;;;;;;;;;;;;;;;;
2023/08/31 02:33:47;;;;;;;16.70;11.40;;;;;;;14.08;100.00;99630.01;218146;1290;140809;-94
2023/08/31 02:44:00;;;;;;;17.40;12.30;;;;;;;14.05;100.00;99625.95;218069;1288;139745;-87
2023/08/31 02:49:01;;;;;;;15.00;10.00;;;;;;;14.02;100.00;99625.43;218761;1288;139543;-88
2023/08/31 02:54:03;;;;;;;15.90;11.30;;;;;;;14.00;100.00;99633.08;218154;1287;153996;-87
2023/08/31 02:59:03;;;;;;;17.80;12.60;;;;;;;13.96;100.00;99635.89;218008;1289;141418;-87
2023/08/31 03:04:05;;;;;;;21.00;11.30;;;;;;;13.91;100.00;99634.38;218748;1287;139411;-87
2023/08/31 03:09:05;;;;;;;19.30;12.00;;;;;;;13.87;100.00;99633.11;218227;1287;141765;-88
2023/08/31 03:14:06;;;;;;;18.40;12.00;;;;;;;13.82;100.00;99632.55;218628;1288;140184;-87
2023/08/31 03:19:06;;;;;;;18.80;11.70;;;;;;;13.77;100.00;99627.34;217983;1287;141589;-88
2023/08/31 03:24:07;;;;;;;19.70;13.10;;;;;;;13.73;100.00;99630.39;218562;1287;139525;-88
2023/08/31 03:29:08;;;;;;;20.30;12.00;;;;;;;13.70;100.00;99627.73;218080;1288;141882;-88
2023/08/31 03:34:08;;;;;;;20.70;14.00;;;;;;;13.68;100.00;99626.42;218611;1288;138970;-88
2023/08/31 03:39:09;;;;;;;19.70;13.60;;;;;;;13.67;100.00;99624.79;218076;1288;140838;-88
2023/08/31 03:44:09;;;;;;;20.40;13.70;;;;;;;13.66;100.00;99627.64;218511;1287;139450;-88
2023/08/31 03:49:10;;;;;;;21.30;12.80;;;;;;;13.65;100.00;99626.48;218151;1288;141317;-87
2023/08/31 03:54:12;;;;;;;20.70;13.70;;;;;;;13.63;100.00;99625.55;218501;1288;139231;-87
2023/08/31 03:59:13;;;;;;;23.90;14.60;;;;;;;13.60;100.00;99618.40;218194;1288;140921;-87
2023/08/31 04:04:13;;;;;;;20.00;14.40;;;;;;;13.59;100.00;99613.77;218728;1288;139816;-87
2023/08/31 04:09:14;;;;;;;28.10;15.60;;;;;;;13.57;100.00;99616.23;217936;1288;141895;-87
2023/08/31 04:14:14;;;;;;;25.00;14.60;;;;;;;13.58;100.00;99617.17;218582;1288;139869;-88
2023/08/31 04:19:15;;;;;;;29.30;16.30;;;;;;;13.60;100.00;99626.70;218146;1288;141166;-87
2023/08/31 04:24:16;;;;;;;24.80;16.60;;;;;;;13.61;100.00;99627.31;218730;1287;139858;-88
2023/08/31 04:29:16;;;;;;;24.40;16.80;;;;;;;13.62;100.00;99621.39;218282;1288;140741;-87
2023/08/31 04:34:17;;;;;;;25.00;15.70;;;;;;;13.63;100.00;99624.20;218561;1288;139151;-87
2023/08/31 04:39:17;;;;;;;25.20;16.40;;;;;;;13.64;100.00;99622.70;217980;1288;142856;-87
2023/08/31 04:44:18;;;;;;;25.40;16.10;;;;;;;13.66;100.00;99617.28;218757;1288;139851;-87
2023/08/31 04:49:18;;;;;;;23.10;16.20;;;;;;;13.68;100.00;99620.83;217890;1288;142000;-87
2023/08/31 04:54:19;;;;;;;26.10;16.20;;;;;;;13.70;100.00;99622.21;218489;1287;139763;-88
2023/08/31 04:59:20;;;;;;;25.30;17.80;;;;;;;13.74;100.00;99633.61;218255;1288;142064;-88
2023/08/31 05:04:20;;;;;;;24.20;17.60;;;;;;;13.78;100.00;99634.50;218663;1288;96162;-87
2023/08/31 05:09:20;;;;;;;25.50;17.20;;;;;;;13.81;100.00;99633.98;217945;1288;140782;-88
2023/08/31 05:14:21;;;;;;;25.30;17.10;;;;;;;13.84;100.00;99644.21;218515;1288;140275;-88
2023/08/31 05:19:22;;;;;;;29.90;19.90;;;;;;;13.88;100.00;99643.84;217928;1288;140721;-87
2023/08/31 05:24:22;;;;;;;28.20;17.70;;;;;;;13.93;100.00;99651.75;218697;1288;139908;-88
2023/08/31 05:29:23;;;;;;;30.20;20.00;;;;;;;13.97;100.00;99646.15;217927;1291;142168;-88
2023/08/31 05:34:25;;;;;;;26.80;18.70;;;;;;;14.03;100.00;99638.78;218629;1288;96074;-88
2023/08/31 05:39:26;;;;;;;29.40;18.90;;;;;;;14.12;100.00;99642.44;217802;1289;142149;-88
2023/08/31 05:44:26;;;;;;;28.30;19.30;;;;;;;14.26;100.00;99644.92;218483;1288;139800;-89
2023/08/31 05:49:27;;;;;;;27.00;18.40;;;;;;;14.47;100.00;99642.05;218054;1288;141425;-86
2023/08/31 05:54:27;;;;;;;36.10;19.30;;;;;;;14.69;100.00;99660.89;218375;1288;139732;-87
2023/08/31 05:59:28;;;;;;;28.00;18.90;;;;;;;14.86;100.00;99661.84;218143;1288;140955;-90
2023/08/31 06:04:28;;;;;;;27.90;18.10;;;;;;;15.01;100.00;99665.98;218681;1288;96075;-88
2023/08/31 06:09:29;;;;;;;23.90;16.70;;;;;;;15.16;100.00;99670.45;218155;1288;140741;-88
2023/08/31 06:14:30;;;;;;;24.10;17.10;;;;;;;15.31;100.00;99671.34;218491;1288;139738;-89
2023/08/31 06:19:31;;;;;;;23.50;16.20;;;;;;;15.43;100.00;99682.93;217950;1288;141014;-91
2023/08/31 06:24:32;;;;;;;25.50;16.60;;;;;;;15.48;100.00;99685.27;218429;1288;139885;-89
2023/08/31 06:29:33;;;;;;;20.80;15.10;;;;;;;15.53;100.00;99689.92;218082;1288;140782;-87
2023/08/31 06:34:33;;;;;;;19.40;13.10;;;;;;;15.55;100.00;99695.34;218785;1288;97315;-88
2023/08/31 06:39:34;;;;;;;19.50;12.90;;;;;;;15.59;100.00;99694.86;217867;1288;140742;-88
2023/08/31 06:44:35;;;;;;;18.20;13.60;;;;;;;15.68;100.00;99696.50;218480;1288;139809;-88
2023/08/31 06:49:36;;;;;;;19.60;12.30;;;;;;;15.82;100.00;99702.61;218060;1288;141775;-88
2023/08/31 06:54:36;;;;;;;20.00;13.90;;;;;;;15.96;100.00;99704.59;218468;1288;139562;-87
2023/08/31 06:59:37;;;;;;;17.70;13.30;;;;;;;16.09;100.00;99716.43;218119;1288;141445;-87
2023/08/31 07:04:38;;;;;;;18.00;12.90;;;;;;;16.19;100.00;99725.90;218558;1288;96645;-88
2023/08/31 07:09:38;;;;;;;15.20;11.30;;;;;;;16.31;100.00;99740.84;217882;1288;141550;-89
2023/08/31 07:14:39;;;;;;;15.00;11.40;;;;;;;16.37;100.00;99734.93;218450;1288;140561;-87
2023/08/31 07:19:42;;;;;;;18.10;11.00;;;;;;;16.47;100.00;99722.23;217550;1289;141837;-87
2023/08/31 07:24:47;;;;;;;15.50;10.60;;;;;;;16.60;100.00;99728.60;218194;1288;139658;-87
2023/08/31 07:29:47;;;;;;;15.70;9.80;;;;;;;16.71;100.00;99739.12;217930;1288;141937;-88
2023/08/31 07:34:48;;;;;;;17.20;10.20;;;;;;;16.82;100.00;99735.90;218628;1288;111809;-87
2023/08/31 07:39:48;;;;;;;15.80;10.00;;;;;;;16.97;100.00;99744.10;217935;1288;140675;-89
2023/08/31 07:44:49;;;;;;;15.10;9.50;;;;;;;17.11;100.00;99752.14;218332;1289;139613;-88
2023/08/31 07:49:49;;;;;;;14.80;10.10;;;;;;;17.32;100.00;99758.59;218088;1288;140283;-85
2023/08/31 07:54:50;;;;;;;14.00;9.00;;;;;;;17.41;100.00;99767.41;218576;1288;139233;-87
2023/08/31 07:59:50;;;;;;;11.90;9.00;;;;;;;17.45;100.00;99765.63;217989;1288;141234;-89
2023/08/31 08:05:24;;;;;;;14.50;9.20;;;;;;;17.55;100.00;99776.58;218837;1288;96313;-92
2023/08/31 08:10:26;;;;;;;13.30;8.50;;;;;;;17.53;100.00;99787.05;217328;1288;140239;-93
2023/08/31 08:15:31;;;;;;;11.60;8.40;;;;;;;17.29;100.00;99796.96;218432;1288;139507;-95
2023/08/31 08:20:35;;;;;;;18.10;8.50;;;;;;;17.09;100.00;99806.06;217793;1291;141400;-93
2023/08/31 08:25:35;;;;;;;12.90;8.80;;;;;;;16.99;100.00;99805.29;218462;1288;139615;-92
2023/08/31 08:30:36;;;;;;;14.30;9.60;;;;;;;16.91;100.00;99813.34;218152;1288;140543;-92
2023/08/31 08:35:39;;;;;;;11.00;7.70;;;;;;;16.82;100.00;99814.75;218591;1288;138825;-93
2023/08/31 08:40:40;;;;;;;10.10;7.10;;;;;;;16.69;100.00;99820.29;218039;1291;140810;-91
2023/08/31 08:45:44;;;;;;;10.50;6.30;;;;;;;16.60;100.00;99821.79;218523;1288;138903;-91
2023/08/31 09:26:28;;;;;;;7.40;4.80;;;;;;;16.53;100.00;99861.31;218800;1287;139003;-90
2023/08/31 09:31:30;;;;;;;8.10;5.10;;;;;;;16.65;100.00;99855.15;218372;1288;140762;-90
2023/08/31 09:36:31;;;;;;;8.50;5.60;;;;;;;16.74;100.00;99863.63;218707;1288;138704;-91
2023/08/31 09:41:35;;;;;;;8.80;5.20;;;;;;;16.80;100.00;99864.83;218208;1286;140320;-88
2023/08/31 09:46:36;;;;;;;11.20;5.90;;;;;;;16.82;100.00;99858.42;218708;1289;138510;-90
2023/08/31 09:51:41;;;;;;;9.00;5.30;;;;;;;16.92;100.00;99882.27;218382;1288;141034;-92
2023/08/31 09:56:43;;;;;;;8.50;4.80;;;;;;;16.91;100.00;99887.68;218766;1288;139197;-90
2023/08/31 10:01:50;;;;;;;11.30;5.60;;;;;;;16.95;100.00;99897.29;218259;1288;140990;-88
2023/08/31 10:06:51;;;;;;;9.90;5.70;;;;;;;17.04;100.00;99897.76;218825;1288;139024;-88
2023/08/31 10:11:52;;;;;;;12.60;6.90;;;;;;;17.16;100.00;99916.01;218493;1288;139805;-87
2023/08/31 10:16:54;;;;;;;10.80;6.20;;;;;;;17.17;100.00;99903.89;218668;1289;96122;-88
2023/08/31 10:22:00;;;;;;;13.00;8.00;;;;;;;17.20;100.00;99905.02;218111;1287;140722;-90
2023/08/31 10:27:18;;;;;;;14.20;8.50;;;;;;;17.13;100.00;99898.04;218589;1286;138840;-87
2023/08/31 10:32:19;;;;;;;14.70;7.80;;;;;;;17.07;100.00;99887.86;218053;1289;140946;-88
2023/08/31 10:37:21;;;;;;;18.30;10.00;;;;;;;17.04;100.00;99889.92;218776;1287;139462;-88
2023/08/31 10:42:23;;;;;;;16.30;10.40;;;;;;;16.97;100.00;99896.98;218109;1285;142508;-88
2023/08/31 10:47:37;;;;;;;14.20;9.10;;;;;;;16.96;100.00;99910.83;218718;1288;106751;-91
2023/08/31 10:52:50;;;;;;;17.50;10.00;;;;;;;16.88;100.00;99908.47;218159;1286;140245;-88
2023/08/31 10:57:51;;;;;;;12.30;6.40;;;;;;;16.88;100.00;99903.80;218245;1286;382788;-90
2023/08/31 11:02:51;;;;;;;9.90;5.30;;;;;;;16.90;100.00;99899.86;218422;1288;140711;-91
2023/08/31 11:07:52;;;;;;;6.70;3.90;;;;;;;17.03;100.00;99896.37;218712;1286;138885;-91
2023/08/31 11:12:55;;;;;;;7.80;4.70;;;;;;;17.24;100.00;99898.09;218374;1287;141601;-91
2023/08/31 11:17:56;;;;;;;11.30;5.80;;;;;;;17.45;100.00;99896.22;218646;1285;138734;-88
2023/08/31 11:22:58;;;;;;;8.40;4.20;;;;;;;17.74;100.00;99899.20;218280;1287;140548;-92
2023/08/31 11:27:59;;;;;;;7.90;3.80;;;;;;;17.93;99.99;99902.38;218731;1286;139655;-88
2023/08/31 11:33:05;;;;;;;9.20;3.80;;;;;;;18.14;100.00;99901.85;218182;1288;141994;-89
2023/08/31 11:38:06;;;;;;;7.20;3.70;;;;;;;18.56;99.87;99900.50;218756;1288;139054;-88
2023/08/31 11:43:07;;;;;;;10.30;3.90;;;;;;;18.93;97.51;99900.08;218250;1285;142060;-90
2023/08/31 11:48:11;;;;;;;7.20;3.60;;;;;;;18.99;95.02;99903.01;218746;1285;138923;-88
2023/08/31 11:53:13;;;;;;;8.50;4.40;;;;;;;19.14;96.21;99901.65;218276;1285;141398;-86
2023/08/31 11:58:13;;;;;;;8.10;3.70;;;;;;;19.55;96.27;99904.61;218683;1291;137284;-89
2023/08/31 12:03:14;;;;;;;6.90;3.40;;;;;;;19.71;93.34;99903.45;218229;1288;140703;-89
2023/08/31 12:08:18;;;;;;;6.50;3.50;;;;;;;19.71;92.67;99908.48;218746;1288;139045;-88
2023/08/31 12:13:19;;;;;;;9.20;3.90;;;;;;;19.58;92.04;99917.99;218297;1287;140804;-90
2023/08/31 12:18:19;;;;;;;6.70;3.30;;;;;;;19.32;92.17;99929.09;218665;1286;138865;-88
2023/08/31 12:23:21;;;;;;;9.00;4.10;;;;;;;19.10;92.95;99916.77;218412;1288;140427;-88
2023/08/31 12:28:23;;;;;;;7.80;4.00;;;;;;;18.90;94.60;99905.86;218585;1288;138712;-87
2023/08/31 12:33:24;;;;;;;12.40;4.60;;;;;;;18.70;95.63;99903.43;218288;1288;140535;-90
2023/08/31 12:38:25;;;;;;;9.50;5.00;;;;;;;18.51;96.14;99906.06;218869;1288;139153;-90
2023/08/31 12:43:26;;;;;;;8.70;4.40;;;;;;;18.31;97.34;99932.03;218205;1286;141060;-89
2023/08/31 12:48:26;;;;;;;9.10;4.30;;;;;;;18.17;97.20;99942.44;218712;1286;139658;-89
2023/08/31 12:53:27;;;;;;;11.40;3.90;;;;;;;18.11;98.17;99944.53;218234;1288;140459;-89
2023/08/31 12:58:27;;;;;;;5.40;2.20;;;;;;;18.10;96.45;99948.52;218878;1287;140308;-89
2023/08/31 13:03:30;;;;;;;4.40;1.60;;;;;;;18.14;94.91;99939.83;218361;1288;141470;-88
2023/08/31 13:08:31;;;;;;;4.70;1.80;;;;;;;18.28;95.13;99936.66;218808;1289;138719;-87
2023/08/31 13:13:31;;;;;;;5.50;1.70;;;;;;;18.38;92.55;99934.41;218031;1288;140147;-89
2023/08/31 13:18:32;;;;;;;4.90;1.90;;;;;;;18.54;92.58;99932.09;218856;1289;138695;-88
2023/08/31 13:23:33;;;;;;;4.40;1.70;;;;;;;18.73;91.65;99933.36;218204;1290;140639;-90
2023/08/31 13:28:33;;;;;;;2.70;1.30;;;;;;;18.80;88.05;99930.23;218915;1288;138541;-88
2023/08/31 13:33:34;;;;;;;5.80;1.50;;;;;;;18.82;86.20;99928.71;218068;1287;140960;-91
2023/08/31 13:38:35;;;;;;;5.00;1.80;;;;;;;18.92;87.40;99924.84;218778;1287;141110;-90
2023/08/31 13:43:35;;;;;;;3.40;1.40;;;;;;;19.06;87.00;99926.64;217967;1289;140620;-89
2023/08/31 13:48:37;;;;;;;4.50;1.80;;;;;;;19.23;88.96;99928.54;218706;1287;138843;-91
2023/08/31 13:53:38;;;;;;;3.40;1.70;;;;;;;19.41;85.82;99929.98;218318;1289;140435;-90
2023/08/31 13:58:39;;;;;;;4.90;1.70;;;;;;;19.57;85.76;99933.20;218794;1289;139147;-90
2023/08/31 14:03:39;;;;;;;6.50;2.00;;;;;;;19.67;86.63;99939.39;218110;1288;140287;-89
2023/08/31 14:08:40;;;;;;;6.80;3.00;;;;;;;19.70;82.97;99948.31;218854;1286;138876;-90
2023/08/31 14:13:43;;;;;;;4.90;1.60;;;;;;;19.52;82.91;99946.89;218224;1290;140404;-88
2023/08/31 14:18:44;;;;;;;4.40;1.60;;;;;;;19.48;84.22;99962.30;218668;1289;139070;-90
2023/08/31 14:23:45;;;;;;;6.00;2.00;;;;;;;19.48;84.87;99973.69;218217;1289;140644;-89
2023/08/31 14:28:46;;;;;;;7.80;3.10;;;;;;;19.39;84.44;99973.81;218687;1289;138453;-88
2023/08/31 14:33:47;;;;;;;5.00;2.10;;;;;;;19.29;87.43;99974.08;218075;1288;141542;-87
2023/08/31 14:38:47;;;;;;;6.70;2.00;;;;;;;19.21;89.42;99972.78;218772;1287;138693;-89
2023/08/31 14:43:48;;;;;;;9.30;1.70;;;;;;;19.12;85.70;99985.95;218262;1288;141413;-89
2023/08/31 14:48:48;;;;;;;5.20;1.70;;;;;;;18.95;84.76;99985.74;218614;1288;139158;-87
2023/08/31 14:53:49;;;;;;;5.10;1.30;;;;;;;18.84;82.71;99985.45;218165;1290;141354;-88
2023/08/31 14:58:49;;;;;;;6.10;2.10;;;;;;;18.66;81.17;99989.24;218852;1291;140247;-89
2023/08/31 15:03:50;;;;;;;4.90;1.80;;;;;;;18.44;81.41;99987.16;218019;1289;141692;-89
2023/08/31 15:08:50;;;;;;;4.40;1.60;;;;;;;18.30;82.81;99987.45;218545;1289;139071;-90
2023/08/31 15:14:01;;;;;;;6.20;2.30;;;;;;;18.15;82.42;99987.37;218225;1287;140473;-86
2023/08/31 15:19:02;;;;;;;6.00;2.20;;;;;;;17.97;83.08;99982.21;218614;1289;141644;-87
2023/08/31 15:24:03;;;;;;;6.10;2.60;;;;;;;17.81;83.32;99989.39;218585;1288;139389;-89
2023/08/31 15:29:04;;;;;;;7.60;2.30;;;;;;;17.71;84.40;99992.50;218441;1288;140518;-88
2023/08/31 15:34:04;;;;;;;5.70;2.10;;;;;;;17.62;85.06;99997.16;218554;1289;138742;-88
2023/08/31 15:39:05;;;;;;;5.20;2.40;;;;;;;17.59;86.32;99999.41;218142;1288;141129;-87
2023/08/31 15:44:05;;;;;;;10.60;2.80;;;;;;;17.54;87.84;100005.09;218616;1290;139744;-87
2023/08/31 15:49:06;;;;;;;6.10;2.10;;;;;;;17.47;88.63;100013.35;218119;1286;140829;-88
2023/08/31 15:54:06;;;;;;;5.10;2.50;;;;;;;17.43;88.60;100018.80;218513;1288;139042;-89
2023/08/31 15:59:07;;;;;;;6.20;2.70;;;;;;;17.41;88.00;100019.54;218269;1288;140552;-88
2023/08/31 16:04:08;;;;;;;6.50;2.60;;;;;;;17.39;88.21;100021.09;218237;1288;138740;-85
2023/08/31 16:09:09;;;;;;;6.00;2.90;;;;;;;17.33;88.20;100023.59;218095;1288;140707;-88
2023/08/31 16:14:09;;;;;;;5.50;2.40;;;;;;;17.25;88.81;100021.53;218749;1288;139009;-87
2023/08/31 16:19:11;;;;;;;8.40;2.70;;;;;;;17.18;88.96;100023.77;217957;1291;141072;-87
2023/08/31 16:24:11;;;;;;;4.60;2.20;;;;;;;17.11;88.88;100024.88;218613;1288;138806;-88
2023/08/31 16:29:12;;;;;;;7.30;2.60;;;;;;;17.03;88.88;100029.49;218269;1289;140099;-88
2023/08/31 16:34:13;;;;;;;7.50;2.50;;;;;;;16.99;88.21;100032.69;218568;1288;139433;-88
2023/08/31 16:39:13;;;;;;;6.90;2.40;;;;;;;16.92;88.19;100030.52;217883;1288;140944;-88
2023/08/31 16:44:14;;;;;;;7.00;2.60;;;;;;;16.87;88.94;100028.80;218660;1286;139458;-88
2023/08/31 16:49:15;;;;;;;6.40;2.30;;;;;;;16.82;88.84;100032.41;218169;1287;140648;-88
2023/08/31 16:54:15;;;;;;;4.00;1.70;;;;;;;16.77;89.16;100036.07;218874;1288;139400;-87
2023/08/31 16:59:16;;;;;;;7.40;2.20;;;;;;;16.72;89.53;100029.44;218471;1286;141648;-88
2023/08/31 17:04:16;;;;;;;5.80;2.60;;;;;;;16.65;89.77;100034.98;218968;1287;139569;-88
2023/08/31 17:09:17;;;;;;;5.30;2.50;;;;;;;16.57;89.85;100033.07;218153;1288;142032;-88
2023/08/31 17:14:19;;;;;;;8.80;2.40;;;;;;;16.47;89.30;100040.33;218857;1288;139003;-91
2023/08/31 17:19:20;;;;;;;6.80;2.20;;;;;;;16.35;88.95;100042.35;218337;1286;141499;-89
2023/08/31 17:24:20;;;;;;;5.30;2.10;;;;;;;16.24;89.05;100041.45;218858;1286;139556;-88
2023/08/31 17:29:21;;;;;;;5.90;2.30;;;;;;;16.12;88.78;100044.03;218381;1288;141039;-88
2023/08/31 17:34:22;;;;;;;6.30;2.40;;;;;;;15.99;88.56;100047.20;218601;1289;139491;-87
2023/08/31 17:39:22;;;;;;;5.00;2.60;;;;;;;15.88;88.96;100048.34;218048;1288;143271;-88
2023/08/31 17:44:24;;;;;;;7.10;2.50;;;;;;;15.76;89.05;100049.32;218673;1286;139694;-87
2023/08/31 17:49:25;;;;;;;6.70;2.70;;;;;;;15.65;89.74;100046.96;218271;1288;141879;-87
2023/08/31 17:54:25;;;;;;;8.80;2.90;;;;;;;15.54;90.11;100047.69;218607;1289;138845;-91
2023/08/31 17:59:27;;;;;;;6.80;3.10;;;;;;;15.43;90.63;100052.69;218259;1288;141448;-88
2023/08/31 18:04:27;;;;;;;8.40;3.40;;;;;;;15.30;91.05;100058.56;218764;1288;139073;-88
2023/08/31 18:09:30;;;;;;;7.90;3.20;;;;;;;15.18;91.60;100066.56;217920;1288;140966;-87
2023/08/31 18:14:32;;;;;;;7.70;3.30;;;;;;;15.07;92.20;100069.32;218420;1288;139243;-90
2023/08/31 18:19:34;;;;;;;7.70;3.50;;;;;;;14.97;93.11;100077.20;218089;1287;141187;-90
2023/08/31 18:24:36;;;;;;;10.40;3.50;;;;;;;14.87;94.27;100081.27;218512;1288;139331;-92
2023/08/31 18:29:37;;;;;;;8.00;3.70;;;;;;;14.77;94.34;100085.35;218228;1287;141836;-90
2023/08/31 18:34:39;;;;;;;10.60;4.00;;;;;;;14.65;94.83;100083.84;218815;1287;139700;-91
2023/08/31 18:39:40;;;;;;;7.90;3.40;;;;;;;14.55;95.15;100083.30;218133;1288;141267;-91
2023/08/31 18:44:40;;;;;;;8.60;3.70;;;;;;;14.47;95.33;100082.36;218845;1287;139113;-91
2023/08/31 18:49:41;;;;;;;8.80;4.10;;;;;;;14.39;95.82;100079.59;218470;1288;142104;-90
2023/08/31 18:54:41;;;;;;;9.70;3.80;;;;;;;14.32;96.15;100081.16;218682;1286;139419;-89
2023/08/31 18:59:41;;;;;;;7.40;3.50;;;;;;;14.26;96.31;100081.14;218203;1286;141708;-90
2023/08/31 19:04:42;;;;;;;10.70;3.50;;;;;;;14.19;96.41;100082.60;218840;1287;139135;-92
2023/08/31 19:09:42;;;;;;;7.00;3.80;;;;;;;14.13;96.41;100089.38;218296;1288;141206;-88
2023/08/31 19:14:43;;;;;;;8.00;3.60;;;;;;;14.07;96.74;100091.40;218870;1285;139647;-89
2023/08/31 19:19:46;;;;;;;7.60;3.90;;;;;;;14.01;96.86;100086.08;218075;1288;141551;-89
2023/08/31 19:24:47;;;;;;;8.80;3.80;;;;;;;13.95;97.62;100086.98;218731;1286;139293;-89
2023/08/31 19:29:47;;;;;;;8.30;3.60;;;;;;;13.90;98.93;100080.09;218390;1288;141182;-90
2023/08/31 19:34:48;;;;;;;7.80;3.80;;;;;;;13.81;99.70;100090.27;218652;1286;139731;-88
2023/08/31 19:39:49;;;;;;;7.40;4.00;;;;;;;13.73;99.73;100089.70;218069;1286;141157;-89
2023/08/31 19:44:49;;;;;;;8.40;4.20;;;;;;;13.66;99.92;100090.60;218646;1286;140292;-89
2023/08/31 19:49:50;;;;;;;9.20;4.20;;;;;;;13.59;99.97;100086.86;218111;1287;142732;-89
2023/08/31 19:54:52;;;;;;;9.50;4.70;;;;;;;13.50;100.00;100091.02;218781;1286;138896;-88
2023/08/31 19:59:52;;;;;;;11.10;4.90;;;;;;;13.43;100.00;100086.89;218277;1287;140819;-89
2023/08/31 20:04:55;;;;;;;9.40;4.50;;;;;;;13.32;100.00;100091.38;218869;1286;139463;-89
2023/08/31 20:09:55;;;;;;;12.90;5.30;;;;;;;13.23;100.00;100094.50;218106;1286;141743;-89
2023/08/31 20:14:56;;;;;;;10.40;4.80;;;;;;;13.14;100.00;100099.36;218453;1288;139766;-91
2023/08/31 20:19:56;;;;;;;11.70;5.60;;;;;;;13.07;100.00;100104.05;218315;1287;141588;-88
2023/08/31 20:24:57;;;;;;;8.70;5.40;;;;;;;13.02;100.00;100102.73;218682;1288;139481;-89
2023/08/31 20:29:57;;;;;;;12.60;6.80;;;;;;;12.96;100.00;100101.33;218420;1286;141205;-90
2023/08/31 20:34:58;;;;;;;13.80;7.50;;;;;;;12.91;100.00;100094.53;218836;1288;138933;-87
2023/08/31 20:39:58;;;;;;;14.50;8.30;;;;;;;12.86;100.00;100093.45;218468;1287;141322;-90
2023/08/31 20:45:00;;;;;;;13.90;8.60;;;;;;;12.82;100.00;100094.41;218624;1286;139973;-88
2023/08/31 20:50:06;;;;;;;17.80;9.10;;;;;;;12.78;100.00;100104.76;218210;1287;141243;-88
2023/08/31 20:55:08;;;;;;;12.60;9.00;;;;;;;12.73;100.00;100110.14;218893;1286;139529;-88
2023/08/31 21:00:10;;;;;;;13.10;7.90;;;;;;;12.70;100.00;100120.56;218088;1288;140489;-88
2023/08/31 21:05:13;;;;;;;14.10;8.30;;;;;;;12.68;100.00;100125.38;218656;1288;96584;-89
2023/08/31 21:10:14;;;;;;;15.80;8.20;;;;;;;12.66;100.00;100133.19;218313;1286;141211;-88
2023/08/31 21:15:14;;;;;;;14.00;8.70;;;;;;;12.63;100.00;100137.45;218663;1288;140249;-88
2023/08/31 21:20:15;;;;;;;14.30;8.90;;;;;;;12.60;100.00;100138.02;218257;1287;141607;-88
2023/08/31 21:25:16;;;;;;;15.50;8.50;;;;;;;12.55;100.00;100136.05;218776;1286;139457;-86
2023/08/31 21:30:16;;;;;;;13.90;8.40;;;;;;;12.53;100.00;100141.48;218329;1287;141376;-87
2023/08/31 21:35:17;;;;;;;15.90;8.00;;;;;;;12.50;100.00;100148.75;219015;1287;96208;-87
2023/08/31 21:40:18;;;;;;;11.30;7.40;;;;;;;12.46;100.00;100150.64;218398;1286;141018;-87
2023/08/31 21:45:18;;;;;;;10.00;5.50;;;;;;;12.41;100.00;100160.12;218991;1288;139253;-87
2023/08/31 21:50:19;;;;;;;12.90;7.20;;;;;;;12.37;100.00;100166.73;218330;1287;140405;-87
2023/08/31 21:55:19;;;;;;;9.30;5.00;;;;;;;12.34;100.00;100166.81;218732;1286;139774;-89
2023/08/31 22:00:20;;;;;;;9.70;5.10;;;;;;;12.29;100.00;100164.45;218370;1287;142378;-87
2023/08/31 22:05:25;;;;;;;10.20;4.70;;;;;;;12.25;100.00;100170.44;218936;1288;96126;-88
2023/08/31 22:10:26;;;;;;;8.50;4.40;;;;;;;12.21;100.00;100178.80;218217;1285;141436;-87
2023/08/31 22:15:27;;;;;;;8.90;4.70;;;;;;;12.18;100.00;100189.05;218859;1286;139520;-87
2023/08/31 22:20:30;;;;;;;8.20;4.40;;;;;;;12.16;100.00;100194.80;218368;1285;141442;-88
2023/08/31 22:25:31;;;;;;;8.20;4.00;;;;;;;12.15;100.00;100199.38;218875;1288;139152;-89
2023/08/31 22:30:32;;;;;;;8.30;3.90;;;;;;;12.12;100.00;100203.23;218315;1286;141846;-88
2023/08/31 22:35:33;;;;;;;8.50;4.50;;;;;;;12.10;100.00;100195.02;218996;1286;96051;-89
2023/08/31 22:40:34;;;;;;;8.50;4.00;;;;;;;12.09;100.00;100203.00;218219;1286;141074;-89
2023/08/31 22:45:34;;;;;;;9.90;4.40;;;;;;;12.09;100.00;100202.77;218947;1287;139524;-87
2023/08/31 22:50:35;;;;;;;12.70;4.50;;;;;;;12.10;100.00;100200.64;218182;1286;141449;-88
2023/08/31 22:55:35;;;;;;;8.50;4.10;;;;;;;12.11;100.00;100204.88;218898;1288;139623;-87
2023/08/31 23:00:36;;;;;;;8.90;4.60;;;;;;;12.13;100.00;100208.27;218143;1286;277293;-88
2023/08/31 23:05:36;;;;;;;8.10;3.90;;;;;;;12.17;100.00;100210.81;218845;1287;95923;-89
2023/08/31 23:10:36;;;;;;;9.50;4.20;;;;;;;12.20;100.00;100213.88;218393;1285;141233;-87
2023/08/31 23:15:41;;;;;;;8.50;4.20;;;;;;;12.24;100.00;100206.71;218631;1285;139049;-89
2023/08/31 23:20:41;;;;;;;9.50;4.60;;;;;;;12.30;100.00;100211.61;218137;1287;141502;-89